sensor_id;sensor_type;location;lat;lon;timestamp;pressure;altitude;pressure_sealevel;temperature;humidity
16016;BME280;8112;53.592;10.184;2023-05-11T00:04:41;101149.97;;;12.68;100.00
16016;BME280;8112;53.592;10.184;2023-05-11T00:09:45;101144.03;;;12.65;100.00
16016;BME280;8112;53.592;10.184;2023-05-11T00:14:47;101154.41;;;12.68;100.00
16016;BME280;8112;53.592;10.184;2023-05-11T00:19:49;101153.00;;;12.77;100.00
16016;BME280;8112;53.592;10.184;2023-05-11T00:24:52;101152.44;;;12.72;100.00
16016;BME280;8112;53.592;10.184;2023-05-11T00:29:54;101153.19;;;12.74;100.00
16016;BME280;8112;53.592;10.184;2023-05-11T00:34:59;101158.66;;;12.85;100.00
16016;BME280;8112;53.592;10.184;2023-05-11T00:40:06;101149.22;;;12.81;100.00
16016;BME280;8112;53.592;10.184;2023-05-11T00:45:08;101149.50;;;12.91;100.00
16016;BME280;8112;53.592;10.184;2023-05-11T00:50:10;101147.41;;;12.81;100.00
16016;BME280;8112;53.592;10.184;2023-05-11T00:55:18;101148.75;;;12.74;100.00
16016;BME280;8112;53.592;10.184;2023-05-11T01:00:24;101138.06;;;12.76;100.00
16016;BME280;8112;53.592;10.184;2023-05-11T01:05:35;101139.13;;;12.73;100.00
16016;BME280;8112;53.592;10.184;2023-05-11T01:10:47;101153.56;;;12.67;100.00
16016;BME280;8112;53.592;10.184;2023-05-11T01:15:51;101149.41;;;12.63;100.00
16016;BME280;8112;53.592;10.184;2023-05-11T01:21:00;101150.91;;;12.53;100.00
16016;BME280;8112;53.592;10.184;2023-05-11T01:26:32;101155.19;;;12.56;100.00
16016;BME280;8112;53.592;10.184;2023-05-11T01:31:39;101157.06;;;12.53;100.00
16016;BME280;8112;53.592;10.184;2023-05-11T01:36:47;101154.88;;;12.46;100.00
16016;BME280;8112;53.592;10.184;2023-05-11T01:41:53;101153.94;;;12.47;100.00
16016;BME280;8112;53.592;10.184;2023-05-11T01:46:59;101159.59;;;12.55;100.00
16016;BME280;8112;53.592;10.184;2023-05-11T01:52:04;101158.19;;;12.64;100.00
16016;BME280;8112;53.592;10.184;2023-05-11T01:57:10;101166.59;;;12.56;100.00
16016;BME280;8112;53.592;10.184;2023-05-11T02:02:18;101170.38;;;12.52;100.00
16016;BME280;8112;53.592;10.184;2023-05-11T02:07:21;101173.38;;;12.60;100.00
16016;BME280;8112;53.592;10.184;2023-05-11T02:12:24;101184.81;;;12.61;100.00
16016;BME280;8112;53.592;10.184;2023-05-11T02:17:31;101183.50;;;12.53;100.00
16016;BME280;8112;53.592;10.184;2023-05-11T02:22:35;101183.00;;;12.61;100.00
16016;BME280;8112;53.592;10.184;2023-05-11T02:27:38;101186.91;;;12.56;100.00
16016;BME280;8112;53.592;10.184;2023-05-11T02:32:47;101192.63;;;12.62;100.00
16016;BME280;8112;53.592;10.184;2023-05-11T02:37:53;101189.66;;;12.68;100.00
16016;BME280;8112;53.592;10.184;2023-05-11T02:43:04;101190.00;;;12.48;100.00
16016;BME280;8112;53.592;10.184;2023-05-11T02:48:12;101185.69;;;12.31;100.00
16016;BME280;8112;53.592;10.184;2023-05-11T02:53:22;101186.91;;;12.25;100.00
16016;BME280;8112;53.592;10.184;2023-05-11T02:58:27;101186.66;;;12.30;100.00
16016;BME280;8112;53.592;10.184;2023-05-11T03:03:43;101191.72;;;12.18;100.00
16016;BME280;8112;53.592;10.184;2023-05-11T03:08:47;101190.09;;;12.16;100.00
16016;BME280;8112;53.592;10.184;2023-05-11T03:13:50;101198.97;;;12.15;100.00
16016;BME280;8112;53.592;10.184;2023-05-11T03:18:56;101195.03;;;12.22;100.00
16016;BME280;8112;53.592;10.184;2023-05-11T03:24:00;101198.72;;;12.19;100.00
16016;BME280;8112;53.592;10.184;2023-05-11T03:29:06;101198.66;;;12.05;100.00
16016;BME280;8112;53.592;10.184;2023-05-11T03:34:11;101210.06;;;12.05;100.00
16016;BME280;8112;53.592;10.184;2023-05-11T03:39:19;101199.69;;;12.02;100.00
16016;BME280;8112;53.592;10.184;2023-05-11T03:44:22;101206.56;;;11.89;100.00
16016;BME280;8112;53.592;10.184;2023-05-11T03:49:28;101197.63;;;11.91;100.00
16016;BME280;8112;53.592;10.184;2023-05-11T03:54:32;101202.41;;;11.84;100.00
16016;BME280;8112;53.592;10.184;2023-05-11T03:59:37;101203.91;;;11.89;100.00
16016;BME280;8112;53.592;10.184;2023-05-11T04:04:43;101212.38;;;11.79;100.00
16016;BME280;8112;53.592;10.184;2023-05-11T04:09:45;101218.34;;;11.83;100.00
16016;BME280;8112;53.592;10.184;2023-05-11T04:14:47;101223.97;;;11.93;100.00
16016;BME280;8112;53.592;10.184;2023-05-11T04:19:50;101217.97;;;12.05;100.00
16016;BME280;8112;53.592;10.184;2023-05-11T04:24:52;101232.13;;;12.04;100.00
16016;BME280;8112;53.592;10.184;2023-05-11T04:29:54;101232.38;;;12.16;100.00
16016;BME280;8112;53.592;10.184;2023-05-11T04:34:57;101227.09;;;12.16;100.00
16016;BME280;8112;53.592;10.184;2023-05-11T04:40:02;101228.34;;;12.24;100.00
16016;BME280;8112;53.592;10.184;2023-05-11T04:45:13;101228.03;;;12.45;100.00
16016;BME280;8112;53.592;10.184;2023-05-11T04:50:18;101229.06;;;12.43;100.00
16016;BME280;8112;53.592;10.184;2023-05-11T04:55:21;101226.81;;;12.51;100.00
16016;BME280;8112;53.592;10.184;2023-05-11T05:00:26;101228.81;;;12.62;100.00
16016;BME280;8112;53.592;10.184;2023-05-11T05:05:32;101231.22;;;12.95;100.00
16016;BME280;8112;53.592;10.184;2023-05-11T05:10:35;101228.84;;;13.20;100.00
16016;BME280;8112;53.592;10.184;2023-05-11T05:15:37;101224.31;;;13.22;100.00
16016;BME280;8112;53.592;10.184;2023-05-11T05:20:43;101224.59;;;13.17;100.00
16016;BME280;8112;53.592;10.184;2023-05-11T05:25:45;101222.72;;;13.05;100.00
16016;BME280;8112;53.592;10.184;2023-05-11T05:30:47;101227.06;;;13.06;100.00
16016;BME280;8112;53.592;10.184;2023-05-11T05:35:50;101231.78;;;13.15;100.00
16016;BME280;8112;53.592;10.184;2023-05-11T05:40:54;101235.75;;;13.37;100.00
16016;BME280;8112;53.592;10.184;2023-05-11T05:45:56;101232.72;;;13.43;100.00
16016;BME280;8112;53.592;10.184;2023-05-11T05:51:02;101230.81;;;13.16;100.00
16016;BME280;8112;53.592;10.184;2023-05-11T05:56:05;101240.66;;;13.14;100.00
16016;BME280;8112;53.592;10.184;2023-05-11T06:01:07;101240.19;;;13.22;100.00
16016;BME280;8112;53.592;10.184;2023-05-11T06:06:11;101254.47;;;13.19;100.00
16016;BME280;8112;53.592;10.184;2023-05-11T06:11:13;101257.13;;;13.05;100.00
16016;BME280;8112;53.592;10.184;2023-05-11T06:16:16;101264.28;;;13.17;100.00
16016;BME280;8112;53.592;10.184;2023-05-11T06:21:19;101269.38;;;13.35;100.00
16016;BME280;8112;53.592;10.184;2023-05-11T06:26:22;101259.56;;;13.37;100.00
16016;BME280;8112;53.592;10.184;2023-05-11T06:31:25;101275.38;;;13.53;100.00
16016;BME280;8112;53.592;10.184;2023-05-11T06:36:30;101271.84;;;13.52;100.00
16016;BME280;8112;53.592;10.184;2023-05-11T06:41:33;101271.94;;;13.65;100.00
16016;BME280;8112;53.592;10.184;2023-05-11T06:46:35;101271.81;;;13.81;100.00
16016;BME280;8112;53.592;10.184;2023-05-11T06:51:40;101269.97;;;13.96;100.00
16016;BME280;8112;53.592;10.184;2023-05-11T06:56:42;101269.31;;;13.93;100.00
16016;BME280;8112;53.592;10.184;2023-05-11T07:01:45;101269.38;;;13.78;100.00
16016;BME280;8112;53.592;10.184;2023-05-11T07:06:48;101275.94;;;13.86;100.00
16016;BME280;8112;53.592;10.184;2023-05-11T07:11:51;101267.88;;;13.60;100.00
16016;BME280;8112;53.592;10.184;2023-05-11T07:16:53;101275.41;;;13.80;100.00
16016;BME280;8112;53.592;10.184;2023-05-11T07:21:57;101271.03;;;13.94;100.00
16016;BME280;8112;53.592;10.184;2023-05-11T07:26:59;101279.19;;;13.91;100.00
16016;BME280;8112;53.592;10.184;2023-05-11T07:32:03;101274.53;;;13.80;100.00
16016;BME280;8112;53.592;10.184;2023-05-11T07:37:06;101281.97;;;14.02;100.00
16016;BME280;8112;53.592;10.184;2023-05-11T07:42:08;101284.47;;;14.18;100.00
16016;BME280;8112;53.592;10.184;2023-05-11T07:47:11;101285.19;;;14.48;100.00
16016;BME280;8112;53.592;10.184;2023-05-11T07:52:14;101289.03;;;14.57;100.00
16016;BME280;8112;53.592;10.184;2023-05-11T07:57:18;101286.91;;;14.49;100.00
16016;BME280;8112;53.592;10.184;2023-05-11T08:02:20;101281.50;;;14.23;100.00
16016;BME280;8112;53.592;10.184;2023-05-11T08:07:23;101287.22;;;14.17;100.00
16016;BME280;8112;53.592;10.184;2023-05-11T08:12:26;101298.84;;;14.14;100.00
16016;BME280;8112;53.592;10.184;2023-05-11T08:17:28;101296.91;;;14.03;100.00
16016;BME280;8112;53.592;10.184;2023-05-11T08:22:32;101300.47;;;13.89;100.00
16016;BME280;8112;53.592;10.184;2023-05-11T08:27:34;101307.50;;;14.03;100.00
16016;BME280;8112;53.592;10.184;2023-05-11T08:32:36;101307.72;;;14.28;100.00
16016;BME280;8112;53.592;10.184;2023-05-11T08:37:40;101317.22;;;14.17;100.00
16016;BME280;8112;53.592;10.184;2023-05-11T08:42:44;101317.78;;;13.80;100.00
16016;BME280;8112;53.592;10.184;2023-05-11T08:47:49;101317.41;;;13.72;100.00
16016;BME280;8112;53.592;10.184;2023-05-11T08:52:52;101330.75;;;13.85;100.00
16016;BME280;8112;53.592;10.184;2023-05-11T08:57:55;101314.66;;;13.88;100.00
16016;BME280;8112;53.592;10.184;2023-05-11T09:02:58;101321.03;;;13.99;100.00
16016;BME280;8112;53.592;10.184;2023-05-11T09:08:03;101325.09;;;14.04;100.00
16016;BME280;8112;53.592;10.184;2023-05-11T09:13:06;101333.56;;;14.24;100.00
16016;BME280;8112;53.592;10.184;2023-05-11T09:18:08;101326.09;;;14.71;100.00
16016;BME280;8112;53.592;10.184;2023-05-11T09:23:14;101331.34;;;14.99;100.00
16016;BME280;8112;53.592;10.184;2023-05-11T09:28:20;101324.25;;;15.12;100.00
16016;BME280;8112;53.592;10.184;2023-05-11T09:33:22;101322.88;;;15.32;100.00
16016;BME280;8112;53.592;10.184;2023-05-11T09:38:26;101312.66;;;15.13;100.00
16016;BME280;8112;53.592;10.184;2023-05-11T09:43:29;101322.75;;;15.08;100.00
16016;BME280;8112;53.592;10.184;2023-05-11T09:48:31;101321.81;;;15.09;100.00
16016;BME280;8112;53.592;10.184;2023-05-11T09:53:38;101330.72;;;15.21;100.00
16016;BME280;8112;53.592;10.184;2023-05-11T09:58:46;101320.63;;;15.39;100.00
16016;BME280;8112;53.592;10.184;2023-05-11T10:03:50;101324.28;;;15.62;100.00
16016;BME280;8112;53.592;10.184;2023-05-11T10:08:54;101317.41;;;15.60;100.00
16016;BME280;8112;53.592;10.184;2023-05-11T10:13:56;101314.63;;;15.74;100.00
16016;BME280;8112;53.592;10.184;2023-05-11T10:18:58;101310.47;;;15.70;100.00
16016;BME280;8112;53.592;10.184;2023-05-11T10:24:04;101314.44;;;15.51;100.00
16016;BME280;8112;53.592;10.184;2023-05-11T10:29:07;101302.44;;;15.59;100.00
16016;BME280;8112;53.592;10.184;2023-05-11T10:34:10;101305.53;;;15.90;100.00
16016;BME280;8112;53.592;10.184;2023-05-11T10:39:15;101291.28;;;15.91;100.00
16016;BME280;8112;53.592;10.184;2023-05-11T10:44:50;101291.44;;;15.89;100.00
16016;BME280;8112;53.592;10.184;2023-05-11T10:50:24;101295.81;;;16.50;100.00
16016;BME280;8112;53.592;10.184;2023-05-11T10:55:44;101285.75;;;16.43;100.00
16016;BME280;8112;53.592;10.184;2023-05-11T11:01:25;101286.13;;;16.49;100.00
16016;BME280;8112;53.592;10.184;2023-05-11T11:06:33;101280.59;;;17.11;100.00
16016;BME280;8112;53.592;10.184;2023-05-11T11:11:39;101275.22;;;17.68;100.00
16016;BME280;8112;53.592;10.184;2023-05-11T11:22:41;101268.13;;;17.34;100.00
16016;BME280;8112;53.592;10.184;2023-05-11T11:27:59;101257.91;;;17.62;100.00
16016;BME280;8112;53.592;10.184;2023-05-11T11:33:31;101262.72;;;17.80;100.00
16016;BME280;8112;53.592;10.184;2023-05-11T11:38:57;101263.97;;;18.20;100.00
16016;BME280;8112;53.592;10.184;2023-05-11T11:44:01;101252.72;;;18.37;100.00
16016;BME280;8112;53.592;10.184;2023-05-11T11:49:08;101253.50;;;18.49;100.00
16016;BME280;8112;53.592;10.184;2023-05-11T11:54:10;101252.84;;;18.15;100.00
16016;BME280;8112;53.592;10.184;2023-05-11T11:59:14;101246.47;;;18.70;100.00
16016;BME280;8112;53.592;10.184;2023-05-11T12:04:37;101249.00;;;19.23;100.00
16016;BME280;8112;53.592;10.184;2023-05-11T12:09:44;101238.25;;;19.04;100.00
16016;BME280;8112;53.592;10.184;2023-05-11T12:14:49;101242.34;;;19.08;100.00
16016;BME280;8112;53.592;10.184;2023-05-11T12:19:51;101243.91;;;19.20;100.00
16016;BME280;8112;53.592;10.184;2023-05-11T12:24:56;101236.22;;;19.37;100.00
16016;BME280;8112;53.592;10.184;2023-05-11T12:30:02;101237.56;;;19.72;100.00
16016;BME280;8112;53.592;10.184;2023-05-11T12:35:05;101228.63;;;19.93;100.00
16016;BME280;8112;53.592;10.184;2023-05-11T12:40:09;101232.09;;;19.13;100.00
16016;BME280;8112;53.592;10.184;2023-05-11T12:45:13;101230.50;;;18.79;100.00
16016;BME280;8112;53.592;10.184;2023-05-11T12:50:16;101222.00;;;19.17;100.00
16016;BME280;8112;53.592;10.184;2023-05-11T12:55:28;101228.13;;;19.58;100.00
16016;BME280;8112;53.592;10.184;2023-05-11T13:00:31;101218.81;;;19.43;100.00
16016;BME280;8112;53.592;10.184;2023-05-11T13:05:34;101210.66;;;19.44;100.00
16016;BME280;8112;53.592;10.184;2023-05-11T13:10:35;101208.38;;;20.00;100.00
16016;BME280;8112;53.592;10.184;2023-05-11T13:15:50;101213.09;;;20.46;100.00
16016;BME280;8112;53.592;10.184;2023-05-11T13:21:03;101193.06;;;20.98;100.00
16016;BME280;8112;53.592;10.184;2023-05-11T13:26:06;101201.22;;;20.58;100.00
16016;BME280;8112;53.592;10.184;2023-05-11T13:31:10;101187.66;;;20.70;100.00
16016;BME280;8112;53.592;10.184;2023-05-11T13:36:11;101185.72;;;21.00;100.00
16016;BME280;8112;53.592;10.184;2023-05-11T13:41:14;101188.59;;;21.16;100.00
16016;BME280;8112;53.592;10.184;2023-05-11T13:46:18;101196.56;;;20.60;100.00
16016;BME280;8112;53.592;10.184;2023-05-11T13:51:20;101196.78;;;20.10;100.00
16016;BME280;8112;53.592;10.184;2023-05-11T13:56:22;101176.09;;;20.31;100.00
16016;BME280;8112;53.592;10.184;2023-05-11T14:01:29;101168.00;;;20.51;100.00
16016;BME280;8112;53.592;10.184;2023-05-11T14:06:34;101164.13;;;20.26;100.00
16016;BME280;8112;53.592;10.184;2023-05-11T14:11:36;101162.72;;;19.72;100.00
16016;BME280;8112;53.592;10.184;2023-05-11T14:16:42;101163.13;;;19.58;100.00
16016;BME280;8112;53.592;10.184;2023-05-11T14:21:44;101162.72;;;19.72;100.00
16016;BME280;8112;53.592;10.184;2023-05-11T14:26:47;101155.97;;;19.78;100.00
16016;BME280;8112;53.592;10.184;2023-05-11T14:31:51;101149.66;;;20.56;100.00
16016;BME280;8112;53.592;10.184;2023-05-11T14:36:52;101151.06;;;21.44;100.00
16016;BME280;8112;53.592;10.184;2023-05-11T14:41:58;101142.16;;;21.44;100.00
16016;BME280;8112;53.592;10.184;2023-05-11T14:47:01;101140.56;;;21.33;100.00
16016;BME280;8112;53.592;10.184;2023-05-11T14:52:05;101140.28;;;21.08;100.00
16016;BME280;8112;53.592;10.184;2023-05-11T14:57:06;101140.16;;;21.28;100.00
16016;BME280;8112;53.592;10.184;2023-05-11T15:02:10;101139.19;;;21.01;100.00
16016;BME280;8112;53.592;10.184;2023-05-11T15:07:13;101132.06;;;20.91;100.00
16016;BME280;8112;53.592;10.184;2023-05-11T15:12:15;101136.19;;;20.86;100.00
16016;BME280;8112;53.592;10.184;2023-05-11T15:17:18;101136.50;;;20.73;100.00
16016;BME280;8112;53.592;10.184;2023-05-11T15:22:20;101141.97;;;20.71;100.00
16016;BME280;8112;53.592;10.184;2023-05-11T15:27:23;101136.88;;;20.88;100.00
16016;BME280;8112;53.592;10.184;2023-05-11T15:32:26;101140.50;;;21.97;100.00
16016;BME280;8112;53.592;10.184;2023-05-11T15:37:28;101139.53;;;22.94;100.00
16016;BME280;8112;53.592;10.184;2023-05-11T15:42:31;101144.56;;;23.48;100.00
16016;BME280;8112;53.592;10.184;2023-05-11T15:47:35;101136.19;;;22.57;100.00
16016;BME280;8112;53.592;10.184;2023-05-11T15:52:37;101137.97;;;22.83;100.00
16016;BME280;8112;53.592;10.184;2023-05-11T15:57:39;101135.72;;;23.21;100.00
16016;BME280;8112;53.592;10.184;2023-05-11T16:02:43;101138.59;;;23.20;100.00
16016;BME280;8112;53.592;10.184;2023-05-11T16:07:49;101131.84;;;22.99;100.00
16016;BME280;8112;53.592;10.184;2023-05-11T16:12:50;101131.13;;;23.90;100.00
16016;BME280;8112;53.592;10.184;2023-05-11T16:17:54;101143.81;;;23.21;100.00
16016;BME280;8112;53.592;10.184;2023-05-11T16:22:56;101131.59;;;22.23;100.00
16016;BME280;8112;53.592;10.184;2023-05-11T16:27:59;101134.41;;;21.95;100.00
16016;BME280;8112;53.592;10.184;2023-05-11T16:33:06;101125.31;;;22.32;100.00
16016;BME280;8112;53.592;10.184;2023-05-11T16:38:14;101127.06;;;22.50;100.00
16016;BME280;8112;53.592;10.184;2023-05-11T16:43:16;101128.84;;;21.88;100.00
16016;BME280;8112;53.592;10.184;2023-05-11T16:48:21;101135.38;;;21.03;100.00
16016;BME280;8112;53.592;10.184;2023-05-11T16:53:23;101137.03;;;20.39;100.00
16016;BME280;8112;53.592;10.184;2023-05-11T16:58:26;101136.44;;;19.97;100.00
16016;BME280;8112;53.592;10.184;2023-05-11T17:03:30;101133.31;;;19.92;100.00
16016;BME280;8112;53.592;10.184;2023-05-11T17:08:33;101133.59;;;19.79;100.00
16016;BME280;8112;53.592;10.184;2023-05-11T17:13:35;101140.91;;;19.67;100.00
16016;BME280;8112;53.592;10.184;2023-05-11T17:18:40;101143.69;;;19.36;100.00
16016;BME280;8112;53.592;10.184;2023-05-11T17:23:43;101140.19;;;19.35;100.00
16016;BME280;8112;53.592;10.184;2023-05-11T17:28:45;101147.75;;;19.30;100.00
16016;BME280;8112;53.592;10.184;2023-05-11T17:33:53;101144.97;;;19.32;100.00
16016;BME280;8112;53.592;10.184;2023-05-11T17:38:55;101145.84;;;19.52;100.00
16016;BME280;8112;53.592;10.184;2023-05-11T17:43:57;101146.13;;;19.49;100.00
16016;BME280;8112;53.592;10.184;2023-05-11T17:49:02;101147.81;;;19.50;100.00
16016;BME280;8112;53.592;10.184;2023-05-11T17:54:05;101160.31;;;19.49;100.00
16016;BME280;8112;53.592;10.184;2023-05-11T17:59:07;101150.59;;;19.39;100.00
16016;BME280;8112;53.592;10.184;2023-05-11T18:04:11;101157.34;;;19.43;100.00
16016;BME280;8112;53.592;10.184;2023-05-11T18:09:14;101161.69;;;19.24;100.00
16016;BME280;8112;53.592;10.184;2023-05-11T18:14:19;101163.31;;;19.05;100.00
16016;BME280;8112;53.592;10.184;2023-05-11T18:19:22;101166.91;;;18.94;100.00
16016;BME280;8112;53.592;10.184;2023-05-11T18:24:24;101173.31;;;18.82;100.00
16016;BME280;8112;53.592;10.184;2023-05-11T18:29:27;101174.84;;;18.75;100.00
16016;BME280;8112;53.592;10.184;2023-05-11T18:34:30;101187.22;;;18.55;100.00
16016;BME280;8112;53.592;10.184;2023-05-11T18:39:33;101189.50;;;18.59;100.00
16016;BME280;8112;53.592;10.184;2023-05-11T18:44:35;101193.75;;;18.41;100.00
16016;BME280;8112;53.592;10.184;2023-05-11T18:49:38;101197.16;;;18.21;100.00
16016;BME280;8112;53.592;10.184;2023-05-11T18:54:41;101198.03;;;18.11;100.00
16016;BME280;8112;53.592;10.184;2023-05-11T18:59:42;101209.28;;;17.81;100.00
16016;BME280;8112;53.592;10.184;2023-05-11T19:04:46;101215.72;;;17.79;100.00
16016;BME280;8112;53.592;10.184;2023-05-11T19:09:48;101223.72;;;17.79;100.00
16016;BME280;8112;53.592;10.184;2023-05-11T19:14:51;101233.81;;;17.64;100.00
16016;BME280;8112;53.592;10.184;2023-05-11T19:19:56;101228.28;;;17.44;100.00
16016;BME280;8112;53.592;10.184;2023-05-11T19:24:58;101236.88;;;17.25;100.00
16016;BME280;8112;53.592;10.184;2023-05-11T19:30:03;101238.44;;;16.93;100.00
16016;BME280;8112;53.592;10.184;2023-05-11T19:35:11;101243.59;;;16.72;100.00
16016;BME280;8112;53.592;10.184;2023-05-11T19:40:14;101246.03;;;16.64;100.00
16016;BME280;8112;53.592;10.184;2023-05-11T19:45:16;101256.75;;;16.51;100.00
16016;BME280;8112;53.592;10.184;2023-05-11T19:50:19;101256.66;;;16.28;100.00
16016;BME280;8112;53.592;10.184;2023-05-11T19:55:21;101264.50;;;16.18;100.00
16016;BME280;8112;53.592;10.184;2023-05-11T20:00:24;101264.47;;;16.07;100.00
16016;BME280;8112;53.592;10.184;2023-05-11T20:05:28;101272.59;;;15.92;100.00
16016;BME280;8112;53.592;10.184;2023-05-11T20:10:31;101270.69;;;15.81;100.00
16016;BME280;8112;53.592;10.184;2023-05-11T20:15:33;101273.81;;;15.75;100.00
16016;BME280;8112;53.592;10.184;2023-05-11T20:20:37;101280.97;;;15.62;100.00
16016;BME280;8112;53.592;10.184;2023-05-11T20:25:39;101280.03;;;15.50;100.00
16016;BME280;8112;53.592;10.184;2023-05-11T20:30:43;101286.63;;;15.44;100.00
16016;BME280;8112;53.592;10.184;2023-05-11T20:35:46;101288.75;;;15.39;100.00
16016;BME280;8112;53.592;10.184;2023-05-11T20:40:54;101299.19;;;15.29;100.00
16016;BME280;8112;53.592;10.184;2023-05-11T20:46:00;101296.94;;;15.23;100.00
16016;BME280;8112;53.592;10.184;2023-05-11T20:51:04;101299.72;;;15.21;100.00
16016;BME280;8112;53.592;10.184;2023-05-11T20:56:06;101313.75;;;15.10;100.00
16016;BME280;8112;53.592;10.184;2023-05-11T21:01:09;101315.19;;;14.89;100.00
16016;BME280;8112;53.592;10.184;2023-05-11T21:06:12;101315.94;;;14.78;100.00
16016;BME280;8112;53.592;10.184;2023-05-11T21:11:15;101322.78;;;14.67;100.00
16016;BME280;8112;53.592;10.184;2023-05-11T21:16:17;101324.88;;;14.62;100.00
16016;BME280;8112;53.592;10.184;2023-05-11T21:21:20;101318.50;;;14.52;100.00
16016;BME280;8112;53.592;10.184;2023-05-11T21:26:22;101326.34;;;14.53;100.00
16016;BME280;8112;53.592;10.184;2023-05-11T21:31:25;101328.59;;;14.60;100.00
16016;BME280;8112;53.592;10.184;2023-05-11T21:36:28;101333.03;;;14.59;100.00
16016;BME280;8112;53.592;10.184;2023-05-11T21:41:30;101338.34;;;14.59;100.00
16016;BME280;8112;53.592;10.184;2023-05-11T21:46:32;101338.03;;;14.51;100.00
16016;BME280;8112;53.592;10.184;2023-05-11T21:51:38;101342.97;;;14.43;100.00
16016;BME280;8112;53.592;10.184;2023-05-11T21:56:39;101361.00;;;14.37;100.00
16016;BME280;8112;53.592;10.184;2023-05-11T22:01:42;101350.47;;;14.36;100.00
16016;BME280;8112;53.592;10.184;2023-05-11T22:06:45;101355.97;;;14.33;100.00
16016;BME280;8112;53.592;10.184;2023-05-11T22:11:46;101371.50;;;13.97;100.00
16016;BME280;8112;53.592;10.184;2023-05-11T22:16:48;101380.97;;;13.87;100.00
16016;BME280;8112;53.592;10.184;2023-05-11T22:21:52;101385.69;;;14.10;100.00
16016;BME280;8112;53.592;10.184;2023-05-11T22:26:53;101385.22;;;14.04;100.00
16016;BME280;8112;53.592;10.184;2023-05-11T22:31:55;101398.22;;;13.94;100.00
16016;BME280;8112;53.592;10.184;2023-05-11T22:37:01;101403.69;;;13.91;100.00
16016;BME280;8112;53.592;10.184;2023-05-11T22:42:05;101405.88;;;13.70;100.00
16016;BME280;8112;53.592;10.184;2023-05-11T22:47:07;101408.13;;;13.61;100.00
16016;BME280;8112;53.592;10.184;2023-05-11T22:52:11;101415.75;;;13.37;100.00
16016;BME280;8112;53.592;10.184;2023-05-11T22:57:13;101424.78;;;13.18;100.00
16016;BME280;8112;53.592;10.184;2023-05-11T23:02:16;101417.88;;;13.16;100.00
16016;BME280;8112;53.592;10.184;2023-05-11T23:07:20;101422.50;;;13.12;100.00
16016;BME280;8112;53.592;10.184;2023-05-11T23:12:22;101423.81;;;13.05;100.00
16016;BME280;8112;53.592;10.184;2023-05-11T23:17:23;101421.69;;;12.95;100.00
16016;BME280;8112;53.592;10.184;2023-05-11T23:22:29;101419.47;;;12.88;100.00
16016;BME280;8112;53.592;10.184;2023-05-11T23:27:34;101421.38;;;12.86;100.00
16016;BME280;8112;53.592;10.184;2023-05-11T23:32:36;101424.06;;;12.69;100.00
16016;BME280;8112;53.592;10.184;2023-05-11T23:37:39;101429.25;;;12.55;100.00
16016;BME280;8112;53.592;10.184;2023-05-11T23:42:41;101432.84;;;12.54;100.00
16016;BME280;8112;53.592;10.184;2023-05-11T23:47:44;101433.19;;;12.48;100.00
16016;BME280;8112;53.592;10.184;2023-05-11T23:52:47;101437.19;;;12.55;100.00
16016;BME280;8112;53.592;10.184;2023-05-11T23:57:49;101430.28;;;12.52;100.00
